sensor_id;sensor_type;location;lat;lon;timestamp;P1;durP1;ratioP1;P2;durP2;ratioP2
47513;SDS011;33951;51.988;5.910;2022-12-18T00:10:46;70.90;;;32.47;;
47513;SDS011;33951;51.988;5.910;2022-12-18T00:19:25;71.00;;;32.47;;
47513;SDS011;33951;51.988;5.910;2022-12-18T00:22:17;74.15;;;34.20;;
47513;SDS011;33951;51.988;5.910;2022-12-18T00:24:42;73.20;;;34.13;;
47513;SDS011;33951;51.988;5.910;2022-12-18T00:27:08;72.95;;;35.38;;
47513;SDS011;33951;51.988;5.910;2022-12-18T00:29:34;73.07;;;35.30;;
47513;SDS011;33951;51.988;5.910;2022-12-18T00:31:59;78.00;;;38.28;;
47513;SDS011;33951;51.988;5.910;2022-12-18T00:34:25;79.25;;;38.17;;
47513;SDS011;33951;51.988;5.910;2022-12-18T00:36:51;85.57;;;41.60;;
47513;SDS011;33951;51.988;5.910;2022-12-18T00:39:17;70.43;;;37.00;;
47513;SDS011;33951;51.988;5.910;2022-12-18T00:41:42;84.18;;;39.78;;
47513;SDS011;33951;51.988;5.910;2022-12-18T00:44:26;74.15;;;35.97;;
47513;SDS011;33951;51.988;5.910;2022-12-18T00:46:52;70.95;;;37.08;;
47513;SDS011;33951;51.988;5.910;2022-12-18T00:49:18;69.68;;;35.42;;
47513;SDS011;33951;51.988;5.910;2022-12-18T00:51:44;67.55;;;35.20;;
47513;SDS011;33951;51.988;5.910;2022-12-18T00:54:10;67.00;;;33.30;;
47513;SDS011;33951;51.988;5.910;2022-12-18T00:56:37;68.32;;;35.75;;
47513;SDS011;33951;51.988;5.910;2022-12-18T00:59:03;65.97;;;33.95;;
47513;SDS011;33951;51.988;5.910;2022-12-18T05:02:17;31.25;;;17.00;;
47513;SDS011;33951;51.988;5.910;2022-12-18T05:04:43;32.83;;;17.50;;
47513;SDS011;33951;51.988;5.910;2022-12-18T05:07:08;33.40;;;16.42;;
47513;SDS011;33951;51.988;5.910;2022-12-18T05:09:34;29.83;;;14.98;;
47513;SDS011;33951;51.988;5.910;2022-12-18T05:12:00;29.85;;;15.98;;
47513;SDS011;33951;51.988;5.910;2022-12-18T05:14:28;33.97;;;17.52;;
47513;SDS011;33951;51.988;5.910;2022-12-18T05:16:54;34.08;;;16.05;;
47513;SDS011;33951;51.988;5.910;2022-12-18T05:19:20;32.22;;;16.83;;
47513;SDS011;33951;51.988;5.910;2022-12-18T05:21:51;32.15;;;16.30;;
47513;SDS011;33951;51.988;5.910;2022-12-18T05:24:17;29.00;;;15.68;;
47513;SDS011;33951;51.988;5.910;2022-12-18T05:26:43;31.30;;;17.10;;
47513;SDS011;33951;51.988;5.910;2022-12-18T05:29:08;32.83;;;15.85;;
47513;SDS011;33951;51.988;5.910;2022-12-18T05:31:37;30.40;;;15.38;;
47513;SDS011;33951;51.988;5.910;2022-12-18T05:34:03;28.55;;;16.58;;
47513;SDS011;33951;51.988;5.910;2022-12-18T05:36:29;26.83;;;15.38;;
47513;SDS011;33951;51.988;5.910;2022-12-18T05:38:55;29.02;;;15.68;;
47513;SDS011;33951;51.988;5.910;2022-12-18T05:41:23;29.13;;;15.52;;
47513;SDS011;33951;51.988;5.910;2022-12-18T05:43:49;31.75;;;17.08;;
47513;SDS011;33951;51.988;5.910;2022-12-18T05:46:15;32.45;;;15.80;;
47513;SDS011;33951;51.988;5.910;2022-12-18T05:48:45;29.65;;;15.90;;
47513;SDS011;33951;51.988;5.910;2022-12-18T05:51:18;34.47;;;16.10;;
47513;SDS011;33951;51.988;5.910;2022-12-18T05:53:47;31.98;;;16.40;;
47513;SDS011;33951;51.988;5.910;2022-12-18T05:56:14;29.00;;;15.60;;
47513;SDS011;33951;51.988;5.910;2022-12-18T06:01:17;30.30;;;16.90;;
47513;SDS011;33951;51.988;5.910;2022-12-18T06:03:46;29.58;;;16.75;;
47513;SDS011;33951;51.988;5.910;2022-12-18T06:06:15;29.77;;;15.85;;
47513;SDS011;33951;51.988;5.910;2022-12-18T06:08:47;29.88;;;15.63;;
47513;SDS011;33951;51.988;5.910;2022-12-18T06:11:16;31.10;;;16.35;;
47513;SDS011;33951;51.988;5.910;2022-12-18T06:13:49;32.75;;;17.70;;
47513;SDS011;33951;51.988;5.910;2022-12-18T06:16:18;29.63;;;16.48;;
47513;SDS011;33951;51.988;5.910;2022-12-18T06:18:47;31.00;;;16.23;;
47513;SDS011;33951;51.988;5.910;2022-12-18T06:21:12;27.27;;;16.17;;
47513;SDS011;33951;51.988;5.910;2022-12-18T06:23:41;36.42;;;18.95;;
47513;SDS011;33951;51.988;5.910;2022-12-18T06:26:10;34.47;;;17.75;;
47513;SDS011;33951;51.988;5.910;2022-12-18T06:28:39;34.20;;;16.88;;
47513;SDS011;33951;51.988;5.910;2022-12-18T06:31:06;33.10;;;17.90;;
47513;SDS011;33951;51.988;5.910;2022-12-18T06:33:36;28.88;;;16.25;;
47513;SDS011;33951;51.988;5.910;2022-12-18T06:36:10;34.38;;;17.95;;
47513;SDS011;33951;51.988;5.910;2022-12-18T06:38:37;32.00;;;16.88;;
47513;SDS011;33951;51.988;5.910;2022-12-18T06:41:08;30.60;;;17.65;;
47513;SDS011;33951;51.988;5.910;2022-12-18T06:43:39;33.88;;;19.23;;
47513;SDS011;33951;51.988;5.910;2022-12-18T06:48:51;34.88;;;18.58;;
47513;SDS011;33951;51.988;5.910;2022-12-18T06:51:21;29.15;;;16.85;;
47513;SDS011;33951;51.988;5.910;2022-12-18T06:53:51;31.38;;;17.55;;
47513;SDS011;33951;51.988;5.910;2022-12-18T06:56:22;28.45;;;16.98;;
47513;SDS011;33951;51.988;5.910;2022-12-18T06:59:00;27.60;;;16.05;;
47513;SDS011;33951;51.988;5.910;2022-12-18T07:03:56;29.77;;;16.75;;
47513;SDS011;33951;51.988;5.910;2022-12-18T07:06:25;28.60;;;16.80;;
47513;SDS011;33951;51.988;5.910;2022-12-18T07:08:55;30.20;;;16.83;;
47513;SDS011;33951;51.988;5.910;2022-12-18T07:11:23;26.77;;;15.93;;
47513;SDS011;33951;51.988;5.910;2022-12-18T07:13:52;27.35;;;15.73;;
47513;SDS011;33951;51.988;5.910;2022-12-18T07:16:21;34.05;;;17.23;;
47513;SDS011;33951;51.988;5.910;2022-12-18T07:21:16;32.05;;;16.98;;
47513;SDS011;33951;51.988;5.910;2022-12-18T07:23:43;28.90;;;16.52;;
47513;SDS011;33951;51.988;5.910;2022-12-18T07:26:12;26.35;;;14.63;;
47513;SDS011;33951;51.988;5.910;2022-12-18T07:28:40;32.63;;;15.40;;
47513;SDS011;33951;51.988;5.910;2022-12-18T07:31:11;28.33;;;15.30;;
47513;SDS011;33951;51.988;5.910;2022-12-18T07:33:38;31.77;;;17.23;;
47513;SDS011;33951;51.988;5.910;2022-12-18T07:36:07;29.63;;;16.20;;
47513;SDS011;33951;51.988;5.910;2022-12-18T07:38:37;31.02;;;16.77;;
47513;SDS011;33951;51.988;5.910;2022-12-18T07:41:12;28.42;;;15.35;;
47513;SDS011;33951;51.988;5.910;2022-12-18T07:43:46;28.05;;;14.93;;
47513;SDS011;33951;51.988;5.910;2022-12-18T07:46:17;26.77;;;14.90;;
47513;SDS011;33951;51.988;5.910;2022-12-18T07:48:49;27.08;;;14.88;;
47513;SDS011;33951;51.988;5.910;2022-12-18T07:51:15;34.42;;;19.38;;
47513;SDS011;33951;51.988;5.910;2022-12-18T07:53:46;26.65;;;16.55;;
47513;SDS011;33951;51.988;5.910;2022-12-18T07:56:22;28.48;;;15.70;;
47513;SDS011;33951;51.988;5.910;2022-12-18T07:59:08;27.88;;;15.48;;
47513;SDS011;33951;51.988;5.910;2022-12-18T08:01:36;26.67;;;15.40;;
47513;SDS011;33951;51.988;5.910;2022-12-18T08:04:04;28.80;;;15.60;;
47513;SDS011;33951;51.988;5.910;2022-12-18T08:06:41;28.52;;;14.70;;
47513;SDS011;33951;51.988;5.910;2022-12-18T08:09:16;26.65;;;15.82;;
47513;SDS011;33951;51.988;5.910;2022-12-18T08:11:45;25.42;;;14.65;;
47513;SDS011;33951;51.988;5.910;2022-12-18T08:14:24;27.60;;;15.32;;
47513;SDS011;33951;51.988;5.910;2022-12-18T08:17:24;33.70;;;15.38;;
47513;SDS011;33951;51.988;5.910;2022-12-18T08:25:23;27.40;;;14.52;;
47513;SDS011;33951;51.988;5.910;2022-12-18T08:27:54;24.05;;;12.65;;
47513;SDS011;33951;51.988;5.910;2022-12-18T08:30:21;27.35;;;14.48;;
47513;SDS011;33951;51.988;5.910;2022-12-18T08:32:53;24.27;;;15.07;;
47513;SDS011;33951;51.988;5.910;2022-12-18T08:35:19;29.98;;;15.43;;
47513;SDS011;33951;51.988;5.910;2022-12-18T08:37:45;25.70;;;15.23;;
47513;SDS011;33951;51.988;5.910;2022-12-18T08:40:11;23.77;;;11.27;;
47513;SDS011;33951;51.988;5.910;2022-12-18T08:42:37;24.02;;;13.18;;
47513;SDS011;33951;51.988;5.910;2022-12-18T08:45:22;25.58;;;14.25;;
47513;SDS011;33951;51.988;5.910;2022-12-18T08:48:00;24.20;;;14.50;;
47513;SDS011;33951;51.988;5.910;2022-12-18T08:50:31;24.45;;;13.30;;
47513;SDS011;33951;51.988;5.910;2022-12-18T08:53:08;33.15;;;17.95;;
47513;SDS011;33951;51.988;5.910;2022-12-18T08:55:34;27.17;;;14.45;;
47513;SDS011;33951;51.988;5.910;2022-12-18T08:58:11;24.58;;;13.57;;
47513;SDS011;33951;51.988;5.910;2022-12-18T09:00:39;22.63;;;13.05;;
47513;SDS011;33951;51.988;5.910;2022-12-18T09:03:13;21.42;;;12.40;;
47513;SDS011;33951;51.988;5.910;2022-12-18T09:05:54;20.77;;;10.98;;
47513;SDS011;33951;51.988;5.910;2022-12-18T09:08:22;20.70;;;12.77;;
47513;SDS011;33951;51.988;5.910;2022-12-18T09:10:59;21.48;;;11.07;;
47513;SDS011;33951;51.988;5.910;2022-12-18T09:13:41;21.25;;;13.00;;
47513;SDS011;33951;51.988;5.910;2022-12-18T09:16:09;20.48;;;12.93;;
47513;SDS011;33951;51.988;5.910;2022-12-18T09:18:46;21.33;;;11.73;;
47513;SDS011;33951;51.988;5.910;2022-12-18T09:21:20;20.95;;;12.35;;
47513;SDS011;33951;51.988;5.910;2022-12-18T09:23:49;18.52;;;10.88;;
47513;SDS011;33951;51.988;5.910;2022-12-18T09:26:19;19.75;;;11.60;;
47513;SDS011;33951;51.988;5.910;2022-12-18T09:28:55;19.42;;;10.77;;
47513;SDS011;33951;51.988;5.910;2022-12-18T09:31:23;16.38;;;10.15;;
47513;SDS011;33951;51.988;5.910;2022-12-18T09:36:50;16.90;;;10.25;;
47513;SDS011;33951;51.988;5.910;2022-12-18T09:43:45;20.63;;;10.98;;
47513;SDS011;33951;51.988;5.910;2022-12-18T09:46:41;20.38;;;10.82;;
47513;SDS011;33951;51.988;5.910;2022-12-18T09:49:17;20.10;;;11.80;;
47513;SDS011;33951;51.988;5.910;2022-12-18T09:52:04;24.05;;;12.25;;
47513;SDS011;33951;51.988;5.910;2022-12-18T09:57:58;19.50;;;10.27;;
47513;SDS011;33951;51.988;5.910;2022-12-18T10:01:01;21.77;;;12.00;;
47513;SDS011;33951;51.988;5.910;2022-12-18T10:03:50;25.13;;;13.13;;
47513;SDS011;33951;51.988;5.910;2022-12-18T10:14:43;20.13;;;10.82;;
47513;SDS011;33951;51.988;5.910;2022-12-18T10:17:55;23.20;;;11.52;;
47513;SDS011;33951;51.988;5.910;2022-12-18T10:20:43;19.25;;;11.25;;
47513;SDS011;33951;51.988;5.910;2022-12-18T10:29:16;21.30;;;10.90;;
47513;SDS011;33951;51.988;5.910;2022-12-18T10:31:44;21.15;;;11.27;;
47513;SDS011;33951;51.988;5.910;2022-12-18T10:34:25;19.25;;;10.80;;
47513;SDS011;33951;51.988;5.910;2022-12-18T10:42:43;16.80;;;10.40;;
47513;SDS011;33951;51.988;5.910;2022-12-18T10:45:22;16.58;;;10.82;;
47513;SDS011;33951;51.988;5.910;2022-12-18T10:47:52;17.13;;;10.48;;
47513;SDS011;33951;51.988;5.910;2022-12-18T10:50:26;39.42;;;20.63;;
47513;SDS011;33951;51.988;5.910;2022-12-18T10:53:01;23.08;;;12.05;;
47513;SDS011;33951;51.988;5.910;2022-12-18T10:55:35;17.25;;;10.55;;
47513;SDS011;33951;51.988;5.910;2022-12-18T11:03:46;17.20;;;10.75;;
47513;SDS011;33951;51.988;5.910;2022-12-18T11:06:16;18.10;;;10.65;;
47513;SDS011;33951;51.988;5.910;2022-12-18T11:09:01;18.95;;;10.07;;
47513;SDS011;33951;51.988;5.910;2022-12-18T11:11:32;18.95;;;11.95;;
47513;SDS011;33951;51.988;5.910;2022-12-18T11:14:02;18.73;;;10.50;;
47513;SDS011;33951;51.988;5.910;2022-12-18T11:16:46;20.08;;;11.23;;
47513;SDS011;33951;51.988;5.910;2022-12-18T11:19:29;20.05;;;11.70;;
47513;SDS011;33951;51.988;5.910;2022-12-18T11:21:58;18.35;;;11.77;;
47513;SDS011;33951;51.988;5.910;2022-12-18T11:26:55;21.08;;;11.93;;
47513;SDS011;33951;51.988;5.910;2022-12-18T11:29:24;21.80;;;11.40;;
47513;SDS011;33951;51.988;5.910;2022-12-18T11:32:12;18.02;;;11.95;;
47513;SDS011;33951;51.988;5.910;2022-12-18T11:35:19;21.77;;;11.52;;
47513;SDS011;33951;51.988;5.910;2022-12-18T11:40:31;16.00;;;10.77;;
47513;SDS011;33951;51.988;5.910;2022-12-18T11:46:09;21.05;;;12.30;;
47513;SDS011;33951;51.988;5.910;2022-12-18T11:48:24;23.63;;;11.57;;
47513;SDS011;33951;51.988;5.910;2022-12-18T11:50:54;18.08;;;10.65;;
47513;SDS011;33951;51.988;5.910;2022-12-18T11:53:22;18.55;;;11.38;;
47513;SDS011;33951;51.988;5.910;2022-12-18T12:01:34;18.58;;;11.70;;
47513;SDS011;33951;51.988;5.910;2022-12-18T12:15:45;20.17;;;11.73;;
47513;SDS011;33951;51.988;5.910;2022-12-18T12:18:31;17.63;;;11.25;;
47513;SDS011;33951;51.988;5.910;2022-12-18T12:26:33;20.85;;;11.98;;
47513;SDS011;33951;51.988;5.910;2022-12-18T12:34:47;20.55;;;12.05;;
47513;SDS011;33951;51.988;5.910;2022-12-18T12:40:18;21.73;;;12.80;;
47513;SDS011;33951;51.988;5.910;2022-12-18T12:42:55;17.90;;;11.98;;
47513;SDS011;33951;51.988;5.910;2022-12-18T12:48:46;16.90;;;9.88;;
47513;SDS011;33951;51.988;5.910;2022-12-18T12:53:59;21.38;;;13.10;;
47513;SDS011;33951;51.988;5.910;2022-12-18T12:56:36;21.75;;;13.07;;
47513;SDS011;33951;51.988;5.910;2022-12-18T13:07:15;18.98;;;12.25;;
47513;SDS011;33951;51.988;5.910;2022-12-18T13:13:17;17.83;;;11.10;;
47513;SDS011;33951;51.988;5.910;2022-12-18T13:15:44;19.75;;;12.23;;
47513;SDS011;33951;51.988;5.910;2022-12-18T13:23:25;19.45;;;11.63;;
47513;SDS011;33951;51.988;5.910;2022-12-18T13:31:13;18.05;;;11.55;;
47513;SDS011;33951;51.988;5.910;2022-12-18T13:36:43;21.75;;;12.73;;
47513;SDS011;33951;51.988;5.910;2022-12-18T13:39:20;20.20;;;12.48;;
47513;SDS011;33951;51.988;5.910;2022-12-18T13:41:53;16.90;;;10.82;;
47513;SDS011;33951;51.988;5.910;2022-12-18T13:44:59;23.70;;;12.00;;
47513;SDS011;33951;51.988;5.910;2022-12-18T13:49:56;19.15;;;11.32;;
47513;SDS011;33951;51.988;5.910;2022-12-18T13:52:23;20.33;;;11.98;;
47513;SDS011;33951;51.988;5.910;2022-12-18T13:54:52;20.80;;;12.95;;
47513;SDS011;33951;51.988;5.910;2022-12-18T13:57:38;21.83;;;13.13;;
47513;SDS011;33951;51.988;5.910;2022-12-18T14:00:40;18.83;;;12.05;;
47513;SDS011;33951;51.988;5.910;2022-12-18T14:02:58;23.23;;;12.57;;
47513;SDS011;33951;51.988;5.910;2022-12-18T14:05:26;19.45;;;12.32;;
47513;SDS011;33951;51.988;5.910;2022-12-18T14:07:54;21.95;;;12.50;;
47513;SDS011;33951;51.988;5.910;2022-12-18T14:10:26;22.58;;;13.27;;
47513;SDS011;33951;51.988;5.910;2022-12-18T14:12:55;22.02;;;13.35;;
47513;SDS011;33951;51.988;5.910;2022-12-18T14:20:49;22.48;;;12.07;;
47513;SDS011;33951;51.988;5.910;2022-12-18T14:23:35;18.88;;;11.57;;
47513;SDS011;33951;51.988;5.910;2022-12-18T14:28:53;24.48;;;12.52;;
47513;SDS011;33951;51.988;5.910;2022-12-18T14:31:21;21.35;;;13.15;;
47513;SDS011;33951;51.988;5.910;2022-12-18T14:33:49;20.30;;;12.27;;
47513;SDS011;33951;51.988;5.910;2022-12-18T14:36:19;22.80;;;12.93;;
47513;SDS011;33951;51.988;5.910;2022-12-18T14:38:50;21.70;;;13.05;;
47513;SDS011;33951;51.988;5.910;2022-12-18T14:41:21;22.20;;;12.23;;
47513;SDS011;33951;51.988;5.910;2022-12-18T14:43:49;21.25;;;13.35;;
47513;SDS011;33951;51.988;5.910;2022-12-18T14:46:58;26.48;;;14.65;;
47513;SDS011;33951;51.988;5.910;2022-12-18T14:51:58;19.63;;;12.23;;
47513;SDS011;33951;51.988;5.910;2022-12-18T14:54:25;23.80;;;13.43;;
47513;SDS011;33951;51.988;5.910;2022-12-18T14:56:56;19.90;;;11.52;;
47513;SDS011;33951;51.988;5.910;2022-12-18T14:59:27;23.80;;;12.85;;
47513;SDS011;33951;51.988;5.910;2022-12-18T15:01:58;23.85;;;13.70;;
47513;SDS011;33951;51.988;5.910;2022-12-18T15:04:26;28.35;;;14.40;;
47513;SDS011;33951;51.988;5.910;2022-12-18T15:09:42;21.73;;;12.38;;
47513;SDS011;33951;51.988;5.910;2022-12-18T15:12:34;26.80;;;13.68;;
47513;SDS011;33951;51.988;5.910;2022-12-18T15:15:02;19.52;;;12.43;;
47513;SDS011;33951;51.988;5.910;2022-12-18T15:17:28;23.60;;;13.90;;
47513;SDS011;33951;51.988;5.910;2022-12-18T15:20:01;37.70;;;21.55;;
47513;SDS011;33951;51.988;5.910;2022-12-18T15:22:34;29.10;;;16.58;;
47513;SDS011;33951;51.988;5.910;2022-12-18T15:25:01;21.92;;;13.68;;
47513;SDS011;33951;51.988;5.910;2022-12-18T15:27:30;20.90;;;13.85;;
47513;SDS011;33951;51.988;5.910;2022-12-18T15:30:20;20.00;;;12.88;;
47513;SDS011;33951;51.988;5.910;2022-12-18T15:32:50;27.15;;;15.05;;
47513;SDS011;33951;51.988;5.910;2022-12-18T15:35:18;30.90;;;17.60;;
47513;SDS011;33951;51.988;5.910;2022-12-18T15:37:49;26.75;;;15.57;;
47513;SDS011;33951;51.988;5.910;2022-12-18T15:40:20;20.73;;;13.35;;
47513;SDS011;33951;51.988;5.910;2022-12-18T15:42:50;26.85;;;14.32;;
47513;SDS011;33951;51.988;5.910;2022-12-18T15:45:37;26.80;;;15.10;;
47513;SDS011;33951;51.988;5.910;2022-12-18T15:48:10;24.95;;;14.05;;
47513;SDS011;33951;51.988;5.910;2022-12-18T15:50:48;25.75;;;17.60;;
47513;SDS011;33951;51.988;5.910;2022-12-18T15:53:17;28.67;;;16.92;;
47513;SDS011;33951;51.988;5.910;2022-12-18T15:58:58;45.72;;;23.15;;
47513;SDS011;33951;51.988;5.910;2022-12-18T16:01:26;29.55;;;16.10;;
47513;SDS011;33951;51.988;5.910;2022-12-18T16:03:53;27.27;;;15.02;;
47513;SDS011;33951;51.988;5.910;2022-12-18T16:06:19;27.75;;;17.13;;
47513;SDS011;33951;51.988;5.910;2022-12-18T16:08:46;27.73;;;15.07;;
47513;SDS011;33951;51.988;5.910;2022-12-18T16:11:31;32.97;;;17.83;;
47513;SDS011;33951;51.988;5.910;2022-12-18T16:14:15;30.17;;;17.30;;
47513;SDS011;33951;51.988;5.910;2022-12-18T16:16:52;29.25;;;16.45;;
47513;SDS011;33951;51.988;5.910;2022-12-18T16:19:19;30.58;;;16.42;;
47513;SDS011;33951;51.988;5.910;2022-12-18T16:21:46;25.40;;;15.50;;
47513;SDS011;33951;51.988;5.910;2022-12-18T16:24:16;27.05;;;15.55;;
47513;SDS011;33951;51.988;5.910;2022-12-18T16:26:44;30.33;;;17.00;;
47513;SDS011;33951;51.988;5.910;2022-12-18T16:29:10;26.83;;;15.82;;
47513;SDS011;33951;51.988;5.910;2022-12-18T16:31:36;30.40;;;18.30;;
47513;SDS011;33951;51.988;5.910;2022-12-18T16:34:19;29.80;;;17.50;;
47513;SDS011;33951;51.988;5.910;2022-12-18T16:36:47;29.77;;;18.33;;
47513;SDS011;33951;51.988;5.910;2022-12-18T16:39:16;27.20;;;16.42;;
47513;SDS011;33951;51.988;5.910;2022-12-18T16:41:47;31.58;;;17.48;;
47513;SDS011;33951;51.988;5.910;2022-12-18T16:44:22;32.28;;;17.02;;
47513;SDS011;33951;51.988;5.910;2022-12-18T16:46:48;29.20;;;17.90;;
47513;SDS011;33951;51.988;5.910;2022-12-18T16:52:16;31.77;;;19.15;;
47513;SDS011;33951;51.988;5.910;2022-12-18T16:54:43;33.10;;;19.00;;
47513;SDS011;33951;51.988;5.910;2022-12-18T16:57:09;35.75;;;20.35;;
47513;SDS011;33951;51.988;5.910;2022-12-18T16:59:38;36.85;;;21.65;;
47513;SDS011;33951;51.988;5.910;2022-12-18T17:02:14;36.35;;;20.48;;
47513;SDS011;33951;51.988;5.910;2022-12-18T17:04:41;38.85;;;19.55;;
47513;SDS011;33951;51.988;5.910;2022-12-18T17:07:07;37.13;;;22.13;;
47513;SDS011;33951;51.988;5.910;2022-12-18T17:09:36;40.38;;;20.67;;
47513;SDS011;33951;51.988;5.910;2022-12-18T17:12:01;59.20;;;30.20;;
47513;SDS011;33951;51.988;5.910;2022-12-18T17:14:31;37.63;;;21.35;;
47513;SDS011;33951;51.988;5.910;2022-12-18T17:17:00;33.08;;;18.80;;
47513;SDS011;33951;51.988;5.910;2022-12-18T17:19:28;37.80;;;21.58;;
47513;SDS011;33951;51.988;5.910;2022-12-18T17:21:54;33.25;;;19.00;;
47513;SDS011;33951;51.988;5.910;2022-12-18T17:24:28;33.50;;;17.33;;
47513;SDS011;33951;51.988;5.910;2022-12-18T17:26:53;31.10;;;18.90;;
47513;SDS011;33951;51.988;5.910;2022-12-18T17:29:19;33.42;;;18.92;;
47513;SDS011;33951;51.988;5.910;2022-12-18T17:31:46;33.50;;;19.55;;
47513;SDS011;33951;51.988;5.910;2022-12-18T17:34:12;36.85;;;20.98;;
47513;SDS011;33951;51.988;5.910;2022-12-18T17:36:41;33.55;;;18.60;;
47513;SDS011;33951;51.988;5.910;2022-12-18T17:39:11;32.85;;;20.75;;
47513;SDS011;33951;51.988;5.910;2022-12-18T17:41:47;34.67;;;19.75;;
47513;SDS011;33951;51.988;5.910;2022-12-18T17:44:12;113.82;;;62.17;;
47513;SDS011;33951;51.988;5.910;2022-12-18T17:46:52;36.90;;;19.77;;
47513;SDS011;33951;51.988;5.910;2022-12-18T17:49:21;67.03;;;36.47;;
47513;SDS011;33951;51.988;5.910;2022-12-18T17:51:46;37.63;;;21.33;;
47513;SDS011;33951;51.988;5.910;2022-12-18T17:54:18;37.58;;;20.23;;
47513;SDS011;33951;51.988;5.910;2022-12-18T17:56:57;33.97;;;18.90;;
47513;SDS011;33951;51.988;5.910;2022-12-18T17:59:25;35.47;;;20.08;;
47513;SDS011;33951;51.988;5.910;2022-12-18T18:01:56;38.50;;;20.58;;
47513;SDS011;33951;51.988;5.910;2022-12-18T18:04:24;30.60;;;18.27;;
47513;SDS011;33951;51.988;5.910;2022-12-18T18:06:55;36.75;;;19.30;;
47513;SDS011;33951;51.988;5.910;2022-12-18T18:12:52;57.30;;;31.90;;
47513;SDS011;33951;51.988;5.910;2022-12-18T18:15:59;38.50;;;20.50;;
47513;SDS011;33951;51.988;5.910;2022-12-18T18:18:37;34.67;;;20.75;;
47513;SDS011;33951;51.988;5.910;2022-12-18T18:21:07;34.35;;;20.00;;
47513;SDS011;33951;51.988;5.910;2022-12-18T18:23:33;34.97;;;19.55;;
47513;SDS011;33951;51.988;5.910;2022-12-18T18:26:06;42.22;;;21.33;;
47513;SDS011;33951;51.988;5.910;2022-12-18T18:28:33;34.08;;;21.15;;
47513;SDS011;33951;51.988;5.910;2022-12-18T18:31:03;37.85;;;20.98;;
47513;SDS011;33951;51.988;5.910;2022-12-18T18:36:01;38.75;;;19.80;;
47513;SDS011;33951;51.988;5.910;2022-12-18T18:38:32;33.95;;;20.88;;
47513;SDS011;33951;51.988;5.910;2022-12-18T18:41:03;36.33;;;20.00;;
47513;SDS011;33951;51.988;5.910;2022-12-18T18:43:35;37.08;;;22.38;;
47513;SDS011;33951;51.988;5.910;2022-12-18T18:46:04;32.75;;;18.98;;
47513;SDS011;33951;51.988;5.910;2022-12-18T18:51:16;33.55;;;20.67;;
47513;SDS011;33951;51.988;5.910;2022-12-18T18:53:44;53.90;;;28.65;;
47513;SDS011;33951;51.988;5.910;2022-12-18T18:56:15;33.65;;;19.98;;
47513;SDS011;33951;51.988;5.910;2022-12-18T18:58:42;34.33;;;20.25;;
47513;SDS011;33951;51.988;5.910;2022-12-18T19:01:16;36.80;;;21.42;;
47513;SDS011;33951;51.988;5.910;2022-12-18T19:03:46;34.92;;;22.13;;
47513;SDS011;33951;51.988;5.910;2022-12-18T19:06:17;34.97;;;20.38;;
47513;SDS011;33951;51.988;5.910;2022-12-18T19:08:48;37.40;;;22.13;;
47513;SDS011;33951;51.988;5.910;2022-12-18T19:11:23;39.33;;;22.27;;
47513;SDS011;33951;51.988;5.910;2022-12-18T19:14:09;38.42;;;23.48;;
47513;SDS011;33951;51.988;5.910;2022-12-18T19:16:41;37.13;;;20.75;;
47513;SDS011;33951;51.988;5.910;2022-12-18T19:22:33;37.35;;;22.48;;
47513;SDS011;33951;51.988;5.910;2022-12-18T19:25:08;31.75;;;20.20;;
47513;SDS011;33951;51.988;5.910;2022-12-18T19:27:43;39.15;;;22.48;;
47513;SDS011;33951;51.988;5.910;2022-12-18T19:30:23;38.53;;;23.15;;
47513;SDS011;33951;51.988;5.910;2022-12-18T19:33:31;42.78;;;23.02;;
47513;SDS011;33951;51.988;5.910;2022-12-18T19:36:28;40.75;;;22.55;;
47513;SDS011;33951;51.988;5.910;2022-12-18T19:42:28;37.03;;;20.08;;
47513;SDS011;33951;51.988;5.910;2022-12-18T19:45:28;39.13;;;22.90;;
47513;SDS011;33951;51.988;5.910;2022-12-18T19:47:57;38.90;;;21.15;;
47513;SDS011;33951;51.988;5.910;2022-12-18T19:53:06;37.80;;;20.52;;
47513;SDS011;33951;51.988;5.910;2022-12-18T19:56:31;36.47;;;21.60;;
47513;SDS011;33951;51.988;5.910;2022-12-18T19:59:38;44.38;;;23.98;;
47513;SDS011;33951;51.988;5.910;2022-12-18T20:02:11;37.55;;;22.00;;
47513;SDS011;33951;51.988;5.910;2022-12-18T20:04:45;37.50;;;22.38;;
47513;SDS011;33951;51.988;5.910;2022-12-18T20:07:16;36.22;;;21.83;;
47513;SDS011;33951;51.988;5.910;2022-12-18T20:10:04;35.22;;;21.40;;
47513;SDS011;33951;51.988;5.910;2022-12-18T20:12:54;42.85;;;25.20;;
47513;SDS011;33951;51.988;5.910;2022-12-18T20:15:26;38.95;;;22.80;;
47513;SDS011;33951;51.988;5.910;2022-12-18T20:18:03;42.58;;;24.63;;
47513;SDS011;33951;51.988;5.910;2022-12-18T20:20:55;40.80;;;23.88;;
47513;SDS011;33951;51.988;5.910;2022-12-18T20:23:36;39.28;;;20.45;;
47513;SDS011;33951;51.988;5.910;2022-12-18T20:26:14;39.92;;;23.05;;
47513;SDS011;33951;51.988;5.910;2022-12-18T20:31:16;38.92;;;24.38;;
47513;SDS011;33951;51.988;5.910;2022-12-18T20:33:44;42.13;;;23.83;;
47513;SDS011;33951;51.988;5.910;2022-12-18T20:36:14;44.42;;;26.75;;
47513;SDS011;33951;51.988;5.910;2022-12-18T20:38:50;42.50;;;25.25;;
47513;SDS011;33951;51.988;5.910;2022-12-18T20:41:24;41.93;;;24.60;;
47513;SDS011;33951;51.988;5.910;2022-12-18T20:43:50;43.88;;;25.42;;
47513;SDS011;33951;51.988;5.910;2022-12-18T20:46:39;40.75;;;25.40;;
47513;SDS011;33951;51.988;5.910;2022-12-18T20:49:07;44.45;;;25.75;;
47513;SDS011;33951;51.988;5.910;2022-12-18T20:51:45;41.55;;;23.60;;
47513;SDS011;33951;51.988;5.910;2022-12-18T20:54:20;42.80;;;25.80;;
47513;SDS011;33951;51.988;5.910;2022-12-18T20:56:58;44.50;;;24.70;;
47513;SDS011;33951;51.988;5.910;2022-12-18T20:59:26;43.35;;;25.15;;
47513;SDS011;33951;51.988;5.910;2022-12-18T21:01:55;38.97;;;24.80;;
47513;SDS011;33951;51.988;5.910;2022-12-18T21:04:41;44.78;;;25.95;;
47513;SDS011;33951;51.988;5.910;2022-12-18T21:07:15;47.78;;;26.92;;
47513;SDS011;33951;51.988;5.910;2022-12-18T21:10:11;41.20;;;25.70;;
47513;SDS011;33951;51.988;5.910;2022-12-18T21:13:06;43.17;;;24.75;;
47513;SDS011;33951;51.988;5.910;2022-12-18T21:15:38;44.15;;;25.50;;
47513;SDS011;33951;51.988;5.910;2022-12-18T21:18:12;50.45;;;26.70;;
47513;SDS011;33951;51.988;5.910;2022-12-18T21:21:12;44.63;;;25.17;;
47513;SDS011;33951;51.988;5.910;2022-12-18T21:24:02;44.10;;;26.10;;
47513;SDS011;33951;51.988;5.910;2022-12-18T21:27:20;51.88;;;28.73;;
47513;SDS011;33951;51.988;5.910;2022-12-18T21:30:30;46.58;;;26.77;;
47513;SDS011;33951;51.988;5.910;2022-12-18T21:33:01;46.13;;;25.40;;
47513;SDS011;33951;51.988;5.910;2022-12-18T21:36:10;51.80;;;29.70;;
47513;SDS011;33951;51.988;5.910;2022-12-18T21:38:50;50.90;;;27.42;;
47513;SDS011;33951;51.988;5.910;2022-12-18T21:41:22;52.15;;;28.33;;
47513;SDS011;33951;51.988;5.910;2022-12-18T21:44:15;54.00;;;29.92;;
47513;SDS011;33951;51.988;5.910;2022-12-18T21:47:38;52.22;;;30.30;;
47513;SDS011;33951;51.988;5.910;2022-12-18T21:50:07;52.90;;;28.33;;
47513;SDS011;33951;51.988;5.910;2022-12-18T21:52:33;49.75;;;28.90;;
47513;SDS011;33951;51.988;5.910;2022-12-18T21:55:04;50.30;;;28.38;;
47513;SDS011;33951;51.988;5.910;2022-12-18T21:57:33;48.65;;;27.83;;
47513;SDS011;33951;51.988;5.910;2022-12-18T22:00:12;50.65;;;28.30;;